createdAt,value
2018-04-06T00:00:08.719Z,982.92
2018-04-06T00:01:08.649Z,982.96
2018-04-06T00:02:08.563Z,982.92
2018-04-06T00:03:08.496Z,982.94
2018-04-06T00:04:08.405Z,982.94
2018-04-06T00:05:08.338Z,982.92
2018-04-06T00:06:08.248Z,982.91
2018-04-06T00:07:08.179Z,982.92
2018-04-06T00:08:08.089Z,982.94
2018-04-06T00:09:08.023Z,982.93
2018-04-06T00:10:07.931Z,982.93
2018-04-06T00:11:07.861Z,982.96
2018-04-06T00:12:07.771Z,982.97
2018-04-06T00:13:07.705Z,982.97
2018-04-06T00:14:07.612Z,982.99
2018-04-06T00:15:07.547Z,982.99
2018-04-06T00:16:07.456Z,983.01
2018-04-06T00:17:07.379Z,983.01
2018-04-06T00:18:07.297Z,982.99
2018-04-06T00:19:07.230Z,982.98
2018-04-06T00:20:07.134Z,982.99
2018-04-06T00:21:07.064Z,982.99
2018-04-06T00:22:06.981Z,983.00
2018-04-06T00:23:06.911Z,983.01
2018-04-06T00:24:06.819Z,982.99
2018-04-06T00:25:06.748Z,982.99
2018-04-06T00:26:06.659Z,982.99
2018-04-06T00:27:06.590Z,982.98
2018-04-06T00:28:06.496Z,983.01
2018-04-06T00:29:06.436Z,983.01
2018-04-06T00:30:06.344Z,983.01
2018-04-06T00:31:06.270Z,983.00
2018-04-06T00:32:06.184Z,983.04
2018-04-06T00:33:06.115Z,983.05
2018-04-06T00:34:06.065Z,983.03
2018-04-06T00:35:05.955Z,983.02
2018-04-06T00:36:05.871Z,983.07
2018-04-06T00:37:05.796Z,983.04
2018-04-06T00:38:05.710Z,983.08
2018-04-06T00:39:05.638Z,983.05
2018-04-06T00:40:05.550Z,983.07
2018-04-06T00:41:05.481Z,983.05
2018-04-06T00:42:05.391Z,983.06
2018-04-06T00:43:05.317Z,983.02
2018-04-06T00:44:05.232Z,982.97
2018-04-06T00:45:05.159Z,983.03
2018-04-06T00:46:05.071Z,983.05
2018-04-06T00:47:05.001Z,983.05
2018-04-06T00:48:04.911Z,983.07
2018-04-06T00:49:04.844Z,983.09
2018-04-06T00:50:04.762Z,983.06
2018-04-06T00:51:04.677Z,983.07
2018-04-06T00:52:04.588Z,983.05
2018-04-06T00:53:04.521Z,983.03
2018-04-06T00:54:04.437Z,982.99
2018-04-06T00:55:04.363Z,983.00
2018-04-06T00:56:04.274Z,982.98
2018-04-06T00:57:04.201Z,982.95
2018-04-06T00:58:04.114Z,982.94
2018-04-06T00:59:04.044Z,982.86
2018-04-06T01:00:03.954Z,982.85
2018-04-06T01:01:03.886Z,982.79
2018-04-06T01:02:03.798Z,982.77
2018-04-06T01:03:03.727Z,982.75
2018-04-06T01:04:03.635Z,982.75
2018-04-06T01:05:03.566Z,982.75
2018-04-06T01:06:03.477Z,982.73
2018-04-06T01:07:03.407Z,982.68
2018-04-06T01:08:03.317Z,982.67
2018-04-06T01:09:03.246Z,982.66
2018-04-06T01:10:03.155Z,982.66
2018-04-06T01:11:03.080Z,982.61
2018-04-06T01:12:02.998Z,982.61
2018-04-06T01:13:02.930Z,982.65
2018-04-06T01:14:02.835Z,982.72
2018-04-06T01:15:02.766Z,982.76
2018-04-06T01:16:02.681Z,982.77
2018-04-06T01:17:02.611Z,982.86
2018-04-06T01:18:02.516Z,982.92
2018-04-06T01:19:02.445Z,982.96
2018-04-06T01:20:02.358Z,983.02
2018-04-06T01:21:02.286Z,983.03
2018-04-06T01:22:02.204Z,983.03
2018-04-06T01:23:02.125Z,983.08
2018-04-06T01:24:02.038Z,983.08
2018-04-06T01:25:01.966Z,983.09
2018-04-06T01:26:01.909Z,983.08
2018-04-06T01:27:01.808Z,983.06
2018-04-06T01:28:01.719Z,983.06
2018-04-06T01:29:01.645Z,983.02
2018-04-06T01:30:01.557Z,982.99
2018-04-06T01:31:01.496Z,983.01
2018-04-06T01:32:01.398Z,983.05
2018-04-06T01:33:01.325Z,983.04
2018-04-06T01:34:01.238Z,983.01
2018-04-06T01:35:01.167Z,983.04
2018-04-06T01:36:01.077Z,983.03
2018-04-06T01:37:01.009Z,983.00
2018-04-06T01:38:00.921Z,983.04
2018-04-06T01:39:00.847Z,983.06
2018-04-06T01:40:00.761Z,983.09
2018-04-06T01:41:00.684Z,983.10
2018-04-06T01:42:00.599Z,983.13
2018-04-06T01:43:00.525Z,983.12
2018-04-06T01:44:00.437Z,983.14
2018-04-06T01:45:00.366Z,983.12
2018-04-06T01:46:00.277Z,983.13
2018-04-06T01:47:00.205Z,983.11
2018-04-06T01:48:00.120Z,983.15
2018-04-06T01:49:00.043Z,983.15
2018-04-06T01:49:59.953Z,983.19
2018-04-06T01:50:59.884Z,983.20
2018-04-06T01:51:59.795Z,983.24
2018-04-06T01:52:59.776Z,983.26
2018-04-06T01:53:59.635Z,983.27
2018-04-06T01:54:59.566Z,983.24
2018-04-06T01:55:59.473Z,983.25
2018-04-06T01:56:59.408Z,983.22
2018-04-06T01:57:59.318Z,983.20
2018-04-06T01:58:59.240Z,983.20
2018-04-06T01:59:59.155Z,983.16
2018-04-06T02:00:59.081Z,983.17
2018-04-06T02:01:58.994Z,983.18
2018-04-06T02:02:58.921Z,983.18
2018-04-06T02:03:58.833Z,983.18
2018-04-06T02:04:58.759Z,983.18
2018-04-06T02:05:58.673Z,983.14
2018-04-06T02:06:58.600Z,983.14
2018-04-06T02:07:58.514Z,983.07
2018-04-06T02:08:58.438Z,983.10
2018-04-06T02:09:58.350Z,983.06
2018-04-06T02:10:58.280Z,983.03
2018-04-06T02:11:58.198Z,982.98
2018-04-06T02:12:58.116Z,982.95
2018-04-06T02:13:58.030Z,982.89
2018-04-06T02:14:57.957Z,982.86
2018-04-06T02:15:57.869Z,982.88
2018-04-06T02:16:57.797Z,982.91
2018-04-06T02:17:57.707Z,982.91
2018-04-06T02:18:57.639Z,982.90
2018-04-06T02:19:57.547Z,982.99
2018-04-06T02:20:57.476Z,983.05
2018-04-06T02:21:57.384Z,983.10
2018-04-06T02:22:58.312Z,983.14
2018-04-06T02:23:57.225Z,983.15
2018-04-06T02:24:57.152Z,983.12
2018-04-06T02:25:57.065Z,983.16
2018-04-06T02:26:56.995Z,983.15
2018-04-06T02:27:56.905Z,983.14
2018-04-06T02:28:56.832Z,983.13
2018-04-06T02:29:56.741Z,983.11
2018-04-06T02:30:56.669Z,983.11
2018-04-06T02:31:56.580Z,983.08
2018-04-06T02:32:56.507Z,983.09
2018-04-06T02:33:56.419Z,983.07
2018-04-06T02:34:56.347Z,983.02
2018-04-06T02:35:56.258Z,983.01
2018-04-06T02:36:56.187Z,982.95
2018-04-06T02:37:56.097Z,982.93
2018-04-06T02:38:56.027Z,982.92
2018-04-06T02:39:55.937Z,982.89
2018-04-06T02:40:55.863Z,982.94
2018-04-06T02:41:55.778Z,983.00
2018-04-06T02:42:55.700Z,983.06
2018-04-06T02:43:55.613Z,983.12
2018-04-06T02:44:55.541Z,983.16
2018-04-06T02:45:55.451Z,983.23
2018-04-06T02:46:55.380Z,983.27
2018-04-06T02:47:55.289Z,983.26
2018-04-06T02:48:55.220Z,983.23
2018-04-06T02:49:55.133Z,983.25
2018-04-06T02:50:55.054Z,983.23
2018-04-06T02:51:54.966Z,983.23
2018-04-06T02:52:54.895Z,983.22
2018-04-06T02:53:54.806Z,983.23
2018-04-06T02:54:54.734Z,983.22
2018-04-06T02:55:54.644Z,983.22
2018-04-06T02:56:54.571Z,983.26
2018-04-06T02:57:54.485Z,983.28
2018-04-06T02:58:54.412Z,983.26
2018-04-06T02:59:54.320Z,983.22
2018-04-06T03:00:54.248Z,983.20
2018-04-06T03:01:54.164Z,983.20
2018-04-06T03:02:55.086Z,983.19
2018-04-06T03:03:53.996Z,983.16
2018-04-06T03:04:53.924Z,983.17
2018-04-06T03:05:53.836Z,983.24
2018-04-06T03:06:53.763Z,983.22
2018-04-06T03:07:53.673Z,983.26
2018-04-06T03:08:53.600Z,983.24
2018-04-06T03:09:53.512Z,983.30
2018-04-06T03:10:53.442Z,983.31
2018-04-06T03:11:53.351Z,983.35
2018-04-06T03:12:53.283Z,983.35
2018-04-06T03:13:53.190Z,983.37
2018-04-06T03:14:53.137Z,983.39
2018-04-06T03:15:53.026Z,983.36
2018-04-06T03:16:52.951Z,983.33
2018-04-06T03:17:52.863Z,983.33
2018-04-06T03:18:52.792Z,983.29
2018-04-06T03:19:52.706Z,983.30
2018-04-06T03:20:52.627Z,983.30
2018-04-06T03:21:52.541Z,983.31
2018-04-06T03:22:52.469Z,983.33
2018-04-06T03:23:52.379Z,983.35
2018-04-06T03:24:52.306Z,983.36
2018-04-06T03:25:52.218Z,983.44
2018-04-06T03:26:52.147Z,983.46
2018-04-06T03:27:52.055Z,983.47
2018-04-06T03:28:51.977Z,983.49
2018-04-06T03:29:51.894Z,983.50
2018-04-06T03:30:51.820Z,983.49
2018-04-06T03:31:51.739Z,983.47
2018-04-06T03:32:51.659Z,983.45
2018-04-06T03:33:51.573Z,983.47
2018-04-06T03:34:51.496Z,983.41
2018-04-06T03:35:51.404Z,983.38
2018-04-06T03:36:51.336Z,983.35
2018-04-06T03:37:51.245Z,983.33
2018-04-06T03:38:51.170Z,983.32
2018-04-06T03:39:51.082Z,983.29
2018-04-06T03:40:51.009Z,983.28
2018-04-06T03:41:50.916Z,983.30
2018-04-06T03:42:50.853Z,983.34
2018-04-06T03:43:50.760Z,983.37
2018-04-06T03:44:50.685Z,983.38
2018-04-06T03:45:50.597Z,983.41
2018-04-06T03:46:50.520Z,983.44
2018-04-06T03:47:50.432Z,983.41
2018-04-06T03:48:50.358Z,983.33
2018-04-06T03:49:50.272Z,983.34
2018-04-06T03:50:51.196Z,983.34
2018-04-06T03:51:50.109Z,983.32
2018-04-06T03:52:50.036Z,983.22
2018-04-06T03:53:49.949Z,983.19
2018-04-06T03:54:49.871Z,983.18
2018-04-06T03:55:49.781Z,983.20
2018-04-06T03:56:49.707Z,983.26
2018-04-06T03:57:49.617Z,983.31
2018-04-06T03:58:49.555Z,983.38
2018-04-06T03:59:49.457Z,983.41
2018-04-06T04:00:49.393Z,983.37
2018-04-06T04:01:49.303Z,983.36
2018-04-06T04:02:49.219Z,983.33
2018-04-06T04:03:49.130Z,983.29
2018-04-06T04:04:49.057Z,983.28
2018-04-06T04:05:48.971Z,983.25
2018-04-06T04:06:48.900Z,983.26
2018-04-06T04:07:48.807Z,983.25
2018-04-06T04:08:48.732Z,983.27
2018-04-06T04:09:48.642Z,983.28
2018-04-06T04:10:48.569Z,983.25
2018-04-06T04:11:48.481Z,983.26
2018-04-06T04:12:48.408Z,983.23
2018-04-06T04:13:48.319Z,983.23
2018-04-06T04:14:48.249Z,983.23
2018-04-06T04:15:48.154Z,983.25
2018-04-06T04:16:48.772Z,983.28
2018-04-06T04:17:47.992Z,983.29
2018-04-06T04:18:47.926Z,983.29
2018-04-06T04:19:47.826Z,983.26
2018-04-06T04:20:47.754Z,983.28
2018-04-06T04:21:47.666Z,983.27
2018-04-06T04:22:47.593Z,983.24
2018-04-06T04:23:47.502Z,983.29
2018-04-06T04:24:47.430Z,983.31
2018-04-06T04:25:47.341Z,983.36
2018-04-06T04:26:47.263Z,983.40
2018-04-06T04:27:47.175Z,983.42
2018-04-06T04:28:47.105Z,983.39
2018-04-06T04:29:47.021Z,983.35
2018-04-06T04:30:46.940Z,983.35
2018-04-06T04:31:46.850Z,983.31
2018-04-06T04:32:47.777Z,983.30
2018-04-06T04:33:46.698Z,983.26
2018-04-06T04:34:46.614Z,983.26
2018-04-06T04:35:46.521Z,983.20
2018-04-06T04:36:46.447Z,983.23
2018-04-06T04:37:46.363Z,983.20
2018-04-06T04:38:46.291Z,983.21
2018-04-06T04:39:46.199Z,983.25
2018-04-06T04:40:46.127Z,983.27
2018-04-06T04:41:46.036Z,983.28
2018-04-06T04:42:45.960Z,983.30
2018-04-06T04:43:45.872Z,983.30
2018-04-06T04:44:45.797Z,983.33
2018-04-06T04:45:45.712Z,983.36
2018-04-06T04:46:45.672Z,983.38
2018-04-06T04:47:45.546Z,983.34
2018-04-06T04:48:45.472Z,983.29
2018-04-06T04:49:45.380Z,983.30
2018-04-06T04:50:45.315Z,983.28
2018-04-06T04:51:45.219Z,983.28
2018-04-06T04:52:45.139Z,983.27
2018-04-06T04:53:45.051Z,983.31
2018-04-06T04:54:44.978Z,983.35
2018-04-06T04:55:44.890Z,983.34
2018-04-06T04:56:44.813Z,983.35
2018-04-06T04:57:44.727Z,983.29
2018-04-06T04:58:44.653Z,983.28
2018-04-06T04:59:44.564Z,983.26
2018-04-06T05:00:44.492Z,983.21
2018-04-06T05:01:44.404Z,983.26
2018-04-06T05:02:44.327Z,983.29
2018-04-06T05:03:44.238Z,983.34
2018-04-06T05:04:44.166Z,983.32
2018-04-06T05:05:44.076Z,983.31
2018-04-06T05:06:44.004Z,983.34
2018-04-06T05:07:43.910Z,983.31
2018-04-06T05:08:43.837Z,983.28
2018-04-06T05:09:43.753Z,983.29
2018-04-06T05:10:43.673Z,983.33
2018-04-06T05:11:43.581Z,983.35
2018-04-06T05:12:43.510Z,983.37
2018-04-06T05:13:43.419Z,983.39
2018-04-06T05:14:43.348Z,983.35
2018-04-06T05:15:43.255Z,983.38
2018-04-06T05:16:43.183Z,983.30
2018-04-06T05:17:43.092Z,983.35
2018-04-06T05:18:43.017Z,983.36
2018-04-06T05:19:42.928Z,983.39
2018-04-06T05:20:42.854Z,983.38
2018-04-06T05:21:42.762Z,983.39
2018-04-06T05:22:42.691Z,983.39
2018-04-06T05:23:42.603Z,983.42
2018-04-06T05:24:42.527Z,983.43
2018-04-06T05:25:42.438Z,983.41
2018-04-06T05:26:42.368Z,983.44
2018-04-06T05:27:42.273Z,983.45
2018-04-06T05:28:42.203Z,983.45
2018-04-06T05:29:42.113Z,983.48
2018-04-06T05:30:42.035Z,983.52
2018-04-06T05:31:41.945Z,983.55
2018-04-06T05:32:41.873Z,983.54
2018-04-06T05:33:41.782Z,983.54
2018-04-06T05:34:41.707Z,983.58
2018-04-06T05:35:41.627Z,983.61
2018-04-06T05:36:41.536Z,983.58
2018-04-06T05:37:41.463Z,983.55
2018-04-06T05:38:41.438Z,983.56
2018-04-06T05:39:41.298Z,983.57
2018-04-06T05:40:41.210Z,983.53
2018-04-06T05:41:41.142Z,983.52
2018-04-06T05:42:41.045Z,983.50
2018-04-06T05:43:40.973Z,983.49
2018-04-06T05:44:40.883Z,983.52
2018-04-06T05:45:40.807Z,983.57
2018-04-06T05:46:40.721Z,983.61
2018-04-06T05:47:40.643Z,983.60
2018-04-06T05:48:40.560Z,983.66
2018-04-06T05:49:40.482Z,983.62
2018-04-06T05:50:40.394Z,983.59
2018-04-06T05:51:40.356Z,983.57
2018-04-06T05:52:40.227Z,983.59
2018-04-06T05:53:40.265Z,983.60
2018-04-06T05:54:40.066Z,983.63
2018-04-06T05:55:40.074Z,983.67
2018-04-06T05:56:39.901Z,983.68
2018-04-06T05:57:39.826Z,983.69
2018-04-06T05:58:39.738Z,983.69
2018-04-06T05:59:39.693Z,983.74
2018-04-06T06:00:39.574Z,983.73
2018-04-06T06:01:39.501Z,983.76
2018-04-06T06:02:39.414Z,983.77
2018-04-06T06:03:39.415Z,983.77
2018-04-06T06:04:39.248Z,983.79
2018-04-06T06:05:39.222Z,983.76
2018-04-06T06:06:39.087Z,983.74
2018-04-06T06:07:39.031Z,983.77
2018-04-06T06:08:38.920Z,983.73
2018-04-06T06:09:38.943Z,983.73
2018-04-06T06:10:38.758Z,983.74
2018-04-06T06:11:38.752Z,983.75
2018-04-06T06:12:38.595Z,983.78
2018-04-06T06:13:38.561Z,983.74
2018-04-06T06:14:38.432Z,983.79
2018-04-06T06:15:38.469Z,983.77
2018-04-06T06:16:38.268Z,983.73
2018-04-06T06:17:38.280Z,983.72
2018-04-06T06:18:38.107Z,983.71
2018-04-06T06:19:38.032Z,983.71
2018-04-06T06:20:37.943Z,983.73
2018-04-06T06:21:37.901Z,983.73
2018-04-06T06:22:37.780Z,983.77
2018-04-06T06:23:37.809Z,983.75
2018-04-06T06:24:37.623Z,983.77
2018-04-06T06:25:37.618Z,983.81
2018-04-06T06:26:37.454Z,983.83
2018-04-06T06:27:37.454Z,983.79
2018-04-06T06:28:37.288Z,983.84
2018-04-06T06:29:37.261Z,983.82
2018-04-06T06:30:37.136Z,983.82
2018-04-06T06:31:37.072Z,983.78
2018-04-06T06:32:36.966Z,983.80
2018-04-06T06:33:36.983Z,983.77
2018-04-06T06:34:36.802Z,983.79
2018-04-06T06:35:36.730Z,983.80
2018-04-06T06:36:36.639Z,983.80
2018-04-06T06:37:36.601Z,983.79
2018-04-06T06:38:36.480Z,983.80
2018-04-06T06:39:36.511Z,983.77
2018-04-06T06:40:36.316Z,983.76
2018-04-06T06:41:36.315Z,983.80
2018-04-06T06:42:36.156Z,983.82
2018-04-06T06:43:36.126Z,983.80
2018-04-06T06:44:35.992Z,983.83
2018-04-06T06:45:35.937Z,983.83
2018-04-06T06:46:35.830Z,983.78
2018-04-06T06:47:35.850Z,983.78
2018-04-06T06:48:35.670Z,983.81
2018-04-06T06:49:35.656Z,983.86
2018-04-06T06:50:35.508Z,983.83
2018-04-06T06:51:35.465Z,983.83
2018-04-06T06:52:35.343Z,983.84
2018-04-06T06:53:35.376Z,983.84
2018-04-06T06:54:35.182Z,983.85
2018-04-06T06:55:35.186Z,983.81
2018-04-06T06:56:35.017Z,983.80
2018-04-06T06:57:34.991Z,983.80
2018-04-06T06:58:34.855Z,983.83
2018-04-06T06:59:34.783Z,983.80
2018-04-06T07:00:34.693Z,983.88
2018-04-06T07:01:34.712Z,983.87
2018-04-06T07:02:34.535Z,983.91
2018-04-06T07:03:34.517Z,983.95
2018-04-06T07:04:34.374Z,983.90
2018-04-06T07:05:34.326Z,983.92
2018-04-06T07:06:34.214Z,983.87
2018-04-06T07:07:34.241Z,983.87
2018-04-06T07:08:34.050Z,983.91
2018-04-06T07:09:34.049Z,983.92
2018-04-06T07:10:33.892Z,983.93
2018-04-06T07:11:33.857Z,983.95
2018-04-06T07:12:33.729Z,983.93
2018-04-06T07:13:33.663Z,983.91
2018-04-06T07:14:33.565Z,983.94
2018-04-06T07:15:33.572Z,983.93
2018-04-06T07:16:33.412Z,983.98
2018-04-06T07:17:34.282Z,984.00
2018-04-06T07:18:33.243Z,984.00
2018-04-06T07:19:33.191Z,983.99
2018-04-06T07:20:33.084Z,984.03
2018-04-06T07:21:33.012Z,984.00
2018-04-06T07:22:33.007Z,984.01
2018-04-06T07:23:32.842Z,984.03
2018-04-06T07:24:32.816Z,984.00
2018-04-06T07:25:32.698Z,983.98
2018-04-06T07:26:32.624Z,983.99
2018-04-06T07:27:32.530Z,983.96
2018-04-06T07:28:32.455Z,983.97
2018-04-06T07:29:32.364Z,983.94
2018-04-06T07:30:32.346Z,983.97
2018-04-06T07:31:32.202Z,983.97
2018-04-06T07:32:32.237Z,983.96
2018-04-06T07:33:32.042Z,984.00
2018-04-06T07:34:32.065Z,983.96
2018-04-06T07:35:31.885Z,983.93
2018-04-06T07:36:31.881Z,983.95
2018-04-06T07:37:31.727Z,983.93
2018-04-06T07:38:31.683Z,983.90
2018-04-06T07:39:31.566Z,983.87
2018-04-06T07:40:31.593Z,983.88
2018-04-06T07:41:31.409Z,983.90
2018-04-06T07:42:31.401Z,983.93
2018-04-06T07:43:31.247Z,983.91
2018-04-06T07:44:31.214Z,983.91
2018-04-06T07:45:31.087Z,983.87
2018-04-06T07:46:31.119Z,983.87
2018-04-06T07:47:30.932Z,983.92
2018-04-06T07:48:30.927Z,983.86
2018-04-06T07:49:30.778Z,983.87
2018-04-06T07:50:30.703Z,983.88
2018-04-06T07:51:30.614Z,983.86
2018-04-06T07:52:30.652Z,983.84
2018-04-06T07:53:30.462Z,983.87
2018-04-06T07:54:30.459Z,983.88
2018-04-06T07:55:30.303Z,983.89
2018-04-06T07:56:30.266Z,983.86
2018-04-06T07:57:30.143Z,983.88
2018-04-06T07:58:34.887Z,983.86
2018-04-06T07:59:29.991Z,983.82
2018-04-06T08:00:31.933Z,983.79
2018-04-06T08:01:29.831Z,983.74
2018-04-06T08:02:41.365Z,983.75
2018-04-06T08:03:29.671Z,983.77
2018-04-06T08:04:36.461Z,983.78
2018-04-06T08:05:29.519Z,983.82
2018-04-06T08:06:29.512Z,983.79
2018-04-06T08:07:29.362Z,983.79
2018-04-06T08:08:29.323Z,983.78
2018-04-06T08:09:29.199Z,983.79
2018-04-06T08:10:29.233Z,983.78
2018-04-06T08:11:29.049Z,983.78
2018-04-06T08:12:30.065Z,983.81
2018-04-06T08:13:28.934Z,983.84
2018-04-06T08:14:28.850Z,983.83
2018-04-06T08:15:28.731Z,983.81
2018-04-06T08:16:28.757Z,983.82
2018-04-06T08:17:28.588Z,983.76
2018-04-06T08:18:28.574Z,983.77
2018-04-06T08:19:28.434Z,983.78
2018-04-06T08:20:28.395Z,983.82
2018-04-06T08:21:28.277Z,983.82
2018-04-06T08:22:28.286Z,983.82
2018-04-06T08:23:28.117Z,983.79
2018-04-06T08:24:28.059Z,983.79
2018-04-06T08:25:27.965Z,983.81
2018-04-06T08:26:27.911Z,983.80
2018-04-06T08:27:27.816Z,983.83
2018-04-06T08:28:27.742Z,983.82
2018-04-06T08:29:27.656Z,983.83
2018-04-06T08:30:27.589Z,983.82
2018-04-06T08:31:27.499Z,983.81
2018-04-06T08:32:27.435Z,983.76
2018-04-06T10:21:26.581Z,982.74
2018-04-06T10:22:26.562Z,982.74
2018-04-06T10:24:22.505Z,982.71
2018-04-06T10:25:22.325Z,982.74
2018-04-06T10:26:22.288Z,982.72
2018-04-06T10:27:22.168Z,982.79
2018-04-06T10:28:22.201Z,982.73
2018-04-06T10:29:22.010Z,982.73
2018-04-06T10:30:22.011Z,982.66
2018-04-06T10:31:21.855Z,982.69
2018-04-06T10:32:21.816Z,982.73
2018-04-06T10:33:21.706Z,982.70
2018-04-06T10:34:21.727Z,982.64
2018-04-06T10:35:21.550Z,982.62
2018-04-06T10:36:21.541Z,982.62
2018-04-06T10:37:21.397Z,982.60
2018-04-06T10:38:21.346Z,982.56
2018-04-06T10:39:21.246Z,982.56
2018-04-06T10:40:22.175Z,982.55
2018-04-06T10:41:21.095Z,982.54
2018-04-06T10:42:21.069Z,982.53
2018-04-06T10:43:20.948Z,982.58
2018-04-06T10:44:20.978Z,982.62
2018-04-06T10:45:20.794Z,982.60
2018-04-06T10:46:20.787Z,982.58
2018-04-06T10:47:20.648Z,982.54
2018-04-06T10:48:20.598Z,982.53
2018-04-06T10:49:20.498Z,982.52
2018-04-06T10:50:20.509Z,982.53
2018-04-06T10:51:20.368Z,982.54
2018-04-06T10:52:20.315Z,982.51
2018-04-06T10:53:20.239Z,982.53
2018-04-06T10:54:20.229Z,982.53
2018-04-06T10:55:20.044Z,982.52
2018-04-06T10:56:20.043Z,982.42
2018-04-06T10:57:19.893Z,982.44
2018-04-06T10:58:19.845Z,982.43
2018-04-06T10:59:19.748Z,982.41
2018-04-06T11:00:19.758Z,982.42
2018-04-06T11:01:19.597Z,982.37
2018-04-06T11:02:19.568Z,982.32
2018-04-06T11:03:19.449Z,982.31
2018-04-06T11:04:19.486Z,982.32
2018-04-06T11:05:19.301Z,982.35
2018-04-06T11:06:19.239Z,982.28
2018-04-06T11:07:19.164Z,982.24
2018-04-06T11:08:19.102Z,982.24
2018-04-06T11:09:19.007Z,982.20
2018-04-06T11:10:19.016Z,982.26
2018-04-06T11:11:18.853Z,982.22
2018-04-06T11:12:18.823Z,982.14
2018-04-06T11:13:18.706Z,982.26
2018-04-06T11:14:18.737Z,982.29
2018-04-06T11:15:18.560Z,982.27
2018-04-06T11:16:18.596Z,982.15
2018-04-06T11:17:18.409Z,982.20
2018-04-06T11:18:18.452Z,982.17
2018-04-06T11:19:18.266Z,982.22
2018-04-06T11:20:18.266Z,982.16
2018-04-06T11:21:18.120Z,982.11
2018-04-06T11:22:18.068Z,982.07
2018-04-06T11:23:17.973Z,982.11
2018-04-06T11:24:17.901Z,982.06
2018-04-06T11:25:17.824Z,982.05
2018-04-06T11:26:17.792Z,981.99
2018-04-06T11:27:17.677Z,982.02
2018-04-06T11:28:17.695Z,982.00
2018-04-06T11:29:17.528Z,981.98
2018-04-06T11:30:17.511Z,981.98
2018-04-06T11:31:17.379Z,981.94
2018-04-06T11:32:17.421Z,982.03
2018-04-06T11:33:17.232Z,981.96
2018-04-06T11:34:17.237Z,981.92
2018-04-06T11:35:17.087Z,981.95
2018-04-06T11:36:17.037Z,981.93
2018-04-06T11:37:16.940Z,981.91
2018-04-06T11:38:16.946Z,981.94
2018-04-06T11:39:16.795Z,981.94
2018-04-06T11:40:16.755Z,981.91
2018-04-06T11:41:16.649Z,981.92
2018-04-06T11:42:16.667Z,981.86
2018-04-06T11:43:16.501Z,981.84
2018-04-06T11:44:16.476Z,981.85
2018-04-06T11:45:16.353Z,981.85
2018-04-06T11:46:16.392Z,981.83
2018-04-06T11:47:16.209Z,981.76
2018-04-06T11:48:16.139Z,981.79
2018-04-06T11:49:16.059Z,981.83
2018-04-06T11:50:16.007Z,981.83
2018-04-06T11:51:15.920Z,981.77
2018-04-06T11:52:15.920Z,981.74
2018-04-06T11:53:15.767Z,981.81
2018-04-06T11:54:15.730Z,981.72
2018-04-06T11:55:15.629Z,981.77
2018-04-06T11:56:15.653Z,981.77
2018-04-06T11:57:15.519Z,981.81
2018-04-06T11:58:15.402Z,981.77
2018-04-06T11:59:15.330Z,981.74
2018-04-06T12:00:15.362Z,981.77
2018-04-06T12:01:15.183Z,981.81
2018-04-06T12:02:15.272Z,981.74
2018-04-06T12:03:15.039Z,981.72
2018-04-06T12:04:15.076Z,981.70
2018-04-06T12:05:14.894Z,981.70
2018-04-06T12:06:14.890Z,981.60
2018-04-06T12:07:14.744Z,981.65
2018-04-06T12:08:14.701Z,981.62
2018-04-06T12:09:14.600Z,981.68
2018-04-06T12:10:14.612Z,981.63
2018-04-06T12:11:14.465Z,981.65
2018-04-06T12:12:14.422Z,981.61
2018-04-06T12:13:14.311Z,981.56
2018-04-06T12:14:14.334Z,981.55
2018-04-06T12:15:14.164Z,981.60
2018-04-06T12:16:14.142Z,981.59
2018-04-06T12:17:14.018Z,981.62
2018-04-06T12:18:13.983Z,981.53
2018-04-06T12:19:13.875Z,981.54
2018-04-06T12:20:13.896Z,981.47
2018-04-06T12:21:13.729Z,981.42
2018-04-06T12:22:13.698Z,981.44
2018-04-06T12:23:13.579Z,981.47
2018-04-06T12:24:13.607Z,981.38
2018-04-06T12:25:13.432Z,981.39
2018-04-06T12:26:13.372Z,981.38
2018-04-06T12:27:13.401Z,981.33
2018-04-06T12:28:13.223Z,981.38
2018-04-06T12:29:13.207Z,981.29
2018-04-06T12:30:13.078Z,981.26
2018-04-06T12:31:13.117Z,981.25
2018-04-06T12:32:12.927Z,981.24
2018-04-06T12:33:12.929Z,981.21
2018-04-06T12:34:12.781Z,981.19
2018-04-06T12:35:12.737Z,981.20
2018-04-06T12:36:12.635Z,981.20
2018-04-06T12:37:12.648Z,981.22
2018-04-06T12:38:12.493Z,981.21
2018-04-06T12:39:12.425Z,981.20
2018-04-06T12:40:12.349Z,981.14
2018-04-06T12:41:12.365Z,981.21
2018-04-06T12:42:12.200Z,981.12
2018-04-06T12:43:12.185Z,981.08
2018-04-06T12:44:12.059Z,981.12
2018-04-06T12:45:12.001Z,981.10
2018-04-06T12:46:11.910Z,981.08
2018-04-06T12:47:11.900Z,981.09
2018-04-06T12:48:11.770Z,981.07
2018-04-06T12:49:11.809Z,981.10
2018-04-06T12:50:11.633Z,981.11
2018-04-06T12:51:11.615Z,981.11
2018-04-06T12:52:11.481Z,981.13
2018-04-06T12:53:11.405Z,981.11
2018-04-06T12:54:11.440Z,981.09
2018-04-06T12:55:11.262Z,981.05
2018-04-06T12:56:11.189Z,981.03
2018-04-06T12:57:11.117Z,981.04
2018-04-06T12:58:11.045Z,980.99
2018-04-06T12:59:10.974Z,981.01
2018-04-06T13:00:10.901Z,980.99
2018-04-06T13:01:10.974Z,980.97
2018-04-06T13:02:10.756Z,980.93
2018-04-06T13:03:10.878Z,980.94
2018-04-06T13:04:10.611Z,980.89
2018-04-06T13:05:10.695Z,980.89
2018-04-06T13:06:10.500Z,980.85
2018-04-06T13:07:10.501Z,980.86
2018-04-06T13:08:10.321Z,980.91
2018-04-06T13:09:10.414Z,980.83
2018-04-06T13:10:10.178Z,980.84
2018-04-06T13:11:10.222Z,980.79
2018-04-06T13:12:10.034Z,980.74
2018-04-06T13:13:10.131Z,980.77
2018-04-06T13:14:09.897Z,980.77
2018-04-06T13:15:09.816Z,980.74
2018-04-06T13:16:09.974Z,980.67
2018-04-06T13:17:09.675Z,980.67
2018-04-06T13:18:09.756Z,980.66
2018-04-06T13:19:09.534Z,980.71
2018-04-06T13:20:09.456Z,980.62
2018-04-06T13:21:09.491Z,980.62
2018-04-06T13:22:09.313Z,980.66
2018-04-06T13:23:09.293Z,980.63
2018-04-06T13:24:09.170Z,980.64
2018-04-06T13:25:09.094Z,980.66
2018-04-06T13:26:09.176Z,980.64
2018-04-06T13:27:08.956Z,980.55
2018-04-06T13:28:08.916Z,980.52
2018-04-06T13:29:08.809Z,980.51
2018-04-06T13:30:08.743Z,980.48
2018-04-06T13:31:08.716Z,980.49
2018-04-06T13:32:08.597Z,980.47
2018-04-06T13:33:08.525Z,980.42
2018-04-06T13:34:08.447Z,980.41
2018-04-06T13:35:08.384Z,980.39
2018-04-06T13:36:08.303Z,980.34
2018-04-06T13:37:08.249Z,980.37
2018-04-06T13:38:08.159Z,980.35
2018-04-06T13:39:08.090Z,980.49
2018-04-06T13:40:08.019Z,980.35
2018-04-06T13:41:07.944Z,980.40
2018-04-06T13:42:07.874Z,980.35
2018-04-06T13:43:07.803Z,980.33
2018-04-06T13:44:07.730Z,980.28
2018-04-06T13:45:07.654Z,980.30
2018-04-06T13:46:07.588Z,980.29
2018-04-06T13:47:07.511Z,980.30
2018-04-06T13:48:07.444Z,980.32
2018-04-06T13:49:07.376Z,980.30
2018-04-06T13:50:07.300Z,980.27
2018-04-06T13:51:07.221Z,980.21
2018-04-06T13:52:07.157Z,980.22
2018-04-06T13:53:07.087Z,980.25
2018-04-06T13:54:07.015Z,980.27
2018-04-06T13:55:06.944Z,980.33
2018-04-06T13:56:06.868Z,980.23
2018-04-06T13:57:06.794Z,980.28
2018-04-06T13:58:06.727Z,980.20
2018-04-06T13:59:06.654Z,980.13
2018-04-06T14:00:06.588Z,980.11
2018-04-06T14:01:06.597Z,980.07
2018-04-06T14:02:06.437Z,980.16
2018-04-06T14:03:06.363Z,980.13
2018-04-06T14:04:06.302Z,980.19
2018-04-06T14:05:06.222Z,980.16
2018-04-06T14:06:06.151Z,980.20
2018-04-06T14:07:06.078Z,980.15
2018-04-06T14:08:06.007Z,980.13
2018-04-06T14:09:05.938Z,980.18
2018-04-06T14:10:05.862Z,980.11
2018-04-06T14:11:05.945Z,980.11
2018-04-06T14:12:05.719Z,980.07
2018-04-06T14:13:05.647Z,980.12
2018-04-06T14:14:05.575Z,980.14
2018-04-06T14:15:05.543Z,980.09
2018-04-06T14:16:05.426Z,980.09